createdAt,value
2019-02-27T00:01:55.799Z,5.23
2019-02-27T00:04:30.134Z,5.19
2019-02-27T00:07:04.964Z,5.17
2019-02-27T00:09:40.022Z,5.12
2019-02-27T00:12:14.190Z,5.07
2019-02-27T00:14:48.815Z,5.03
2019-02-27T00:17:23.885Z,5.01
2019-02-27T00:19:58.086Z,4.98
2019-02-27T00:22:33.712Z,4.94
2019-02-27T00:25:08.365Z,4.90
2019-02-27T00:27:42.583Z,4.84
2019-02-27T00:30:16.917Z,4.81
2019-02-27T00:32:51.917Z,4.79
2019-02-27T00:35:28.476Z,4.78
2019-02-27T00:38:03.948Z,4.77
2019-02-27T00:40:39.356Z,4.78
2019-02-27T00:43:21.496Z,4.77
2019-02-27T00:45:57.020Z,4.77
2019-02-27T00:48:31.969Z,4.73
2019-02-27T00:51:06.539Z,4.71
2019-02-27T00:53:41.038Z,4.69
2019-02-27T00:56:16.374Z,4.63
2019-02-27T00:58:50.738Z,4.57
2019-02-27T01:01:26.557Z,4.51
2019-02-27T01:04:02.502Z,4.43
2019-02-27T01:06:37.425Z,4.36
2019-02-27T01:09:15.755Z,4.33
2019-02-27T01:11:51.808Z,4.28
2019-02-27T01:15:51.070Z,4.23
2019-02-27T01:19:24.368Z,4.14
2019-02-27T01:33:46.951Z,3.91
2019-02-27T01:42:07.406Z,3.87
2019-02-27T01:57:31.403Z,3.86
2019-02-27T02:00:59.777Z,3.81
2019-02-27T02:04:22.789Z,3.74
2019-02-27T02:07:26.206Z,3.70
2019-02-27T02:10:30.332Z,3.69
2019-02-27T02:17:51.591Z,3.66
2019-02-27T02:21:01.671Z,3.64
2019-02-27T02:24:47.428Z,3.62
2019-02-27T02:28:27.230Z,3.58
2019-02-27T02:31:45.534Z,3.55
2019-02-27T02:35:49.564Z,3.54
2019-02-27T02:39:19.160Z,3.53
2019-02-27T02:43:03.335Z,3.52
2019-02-27T02:46:19.470Z,3.52
2019-02-27T02:49:50.235Z,3.50
2019-02-27T02:53:24.995Z,3.50
2019-02-27T02:57:00.569Z,3.46
2019-02-27T03:00:39.106Z,3.43
2019-02-27T03:04:05.177Z,3.39
2019-02-27T03:07:32.282Z,3.31
2019-02-27T03:10:48.696Z,3.28
2019-02-27T03:14:17.662Z,3.26
2019-02-27T03:17:54.714Z,3.21
2019-02-27T03:21:11.032Z,3.13
2019-02-27T03:24:53.233Z,3.07
2019-02-27T03:28:05.914Z,3.02
2019-02-27T03:31:19.591Z,2.98
2019-02-27T03:34:50.471Z,2.95
2019-02-27T03:38:04.591Z,2.94
2019-02-27T03:41:30.599Z,2.97
2019-02-27T03:44:55.875Z,2.88
2019-02-27T03:47:55.474Z,2.84
2019-02-27T03:51:30.852Z,2.82
2019-02-27T03:54:26.280Z,2.76
2019-02-27T03:57:34.052Z,2.74
2019-02-27T04:00:55.900Z,2.77
2019-02-27T04:04:36.935Z,2.82
2019-02-27T04:08:18.769Z,2.83
2019-02-27T04:10:54.065Z,2.85
2019-02-27T04:13:28.749Z,2.86
2019-02-27T04:16:04.922Z,2.83
2019-02-27T04:18:33.923Z,2.83
2019-02-27T04:21:09.173Z,2.81
2019-02-27T04:23:47.999Z,2.75
2019-02-27T04:26:21.166Z,2.70
2019-02-27T04:28:56.276Z,2.61
2019-02-27T04:31:31.307Z,2.61
2019-02-27T04:34:06.226Z,2.52
2019-02-27T04:36:41.357Z,2.41
2019-02-27T04:39:20.516Z,2.32
2019-02-27T04:41:53.077Z,2.27
2019-02-27T04:44:28.666Z,2.22
2019-02-27T04:47:04.253Z,2.28
2019-02-27T04:49:39.327Z,2.31
2019-02-27T04:52:14.847Z,2.36
2019-02-27T04:54:49.889Z,2.33
2019-02-27T04:57:24.982Z,2.19
2019-02-27T05:00:00.242Z,2.14
2019-02-27T05:02:34.832Z,2.13
2019-02-27T05:05:09.469Z,2.20
2019-02-27T05:07:45.011Z,2.20
2019-02-27T05:10:19.361Z,2.17
2019-02-27T05:12:54.413Z,2.11
2019-02-27T05:15:29.333Z,2.11
2019-02-27T05:18:05.016Z,2.10
2019-02-27T05:20:44.987Z,2.12
2019-02-27T05:23:19.362Z,2.19
2019-02-27T05:25:54.309Z,2.21
2019-02-27T05:28:28.138Z,2.21
2019-02-27T05:31:04.189Z,2.18
2019-02-27T05:33:39.877Z,2.09
2019-02-27T05:36:15.268Z,1.89
2019-02-27T05:38:50.404Z,1.80
2019-02-27T05:41:24.828Z,1.76
2019-02-27T05:44:00.594Z,1.80
2019-02-27T05:46:35.691Z,1.85
2019-02-27T05:49:11.533Z,1.86
2019-02-27T05:51:46.637Z,1.86
2019-02-27T05:54:22.236Z,1.92
2019-02-27T05:56:58.413Z,1.97
2019-02-27T05:59:32.825Z,1.86
2019-02-27T06:02:08.702Z,1.80
2019-02-27T06:04:42.216Z,1.81
2019-02-27T06:07:18.640Z,1.88
2019-02-27T06:09:51.354Z,1.92
2019-02-27T06:12:24.679Z,1.93
2019-02-27T06:14:58.829Z,1.93
2019-02-27T06:17:42.906Z,1.98
2019-02-27T06:20:07.989Z,1.99
2019-02-27T06:22:42.398Z,1.98
2019-02-27T06:25:21.493Z,1.98
2019-02-27T06:27:53.591Z,1.88
2019-02-27T06:30:30.683Z,1.88
2019-02-27T06:33:05.963Z,1.94
2019-02-27T06:35:40.081Z,1.97
2019-02-27T06:38:13.266Z,1.97
2019-02-27T06:40:46.815Z,2.04
2019-02-27T06:43:20.404Z,2.02
2019-02-27T06:45:54.408Z,1.98
2019-02-27T06:48:27.984Z,2.04
2019-02-27T06:51:01.640Z,2.08
2019-02-27T06:53:35.279Z,2.12
2019-02-27T06:56:10.960Z,2.14
2019-02-27T06:58:47.520Z,2.14
2019-02-27T07:01:21.961Z,2.13
2019-02-27T07:03:55.897Z,2.13
2019-02-27T07:06:30.868Z,2.19
2019-02-27T07:09:11.392Z,2.24
2019-02-27T07:11:46.202Z,2.28
2019-02-27T07:14:21.179Z,2.33
2019-02-27T07:16:57.319Z,2.40
2019-02-27T07:19:32.161Z,2.47
2019-02-27T07:22:06.229Z,2.49
2019-02-27T07:24:41.373Z,2.50
2019-02-27T07:27:21.731Z,2.44
2019-02-27T07:29:56.151Z,2.39
2019-02-27T07:32:31.364Z,2.35
2019-02-27T07:35:03.709Z,2.40
2019-02-27T07:37:35.761Z,2.51
2019-02-27T07:40:10.647Z,2.64
2019-02-27T07:42:44.188Z,2.71
2019-02-27T07:45:19.204Z,2.76
2019-02-27T07:47:52.735Z,2.85
2019-02-27T07:50:26.011Z,2.89
2019-02-27T07:52:59.917Z,2.95
2019-02-27T07:55:33.319Z,2.91
2019-02-27T07:58:06.142Z,2.95
2019-02-27T08:00:39.979Z,3.04
2019-02-27T08:03:13.805Z,3.11
2019-02-27T08:05:48.015Z,3.14
2019-02-27T08:08:23.607Z,3.14
2019-02-27T08:10:57.154Z,3.12
2019-02-27T08:13:31.403Z,3.08
2019-02-27T08:16:04.225Z,3.02
2019-02-27T08:18:38.169Z,3.03
2019-02-27T08:21:11.294Z,3.02
2019-02-27T08:23:44.739Z,3.03
2019-02-27T08:26:18.868Z,3.11
2019-02-27T08:28:52.593Z,3.25
2019-02-27T08:31:28.177Z,3.33
2019-02-27T08:34:01.270Z,3.38
2019-02-27T08:36:35.112Z,3.41
2019-02-27T08:39:09.257Z,3.46
2019-02-27T08:41:42.133Z,3.55
2019-02-27T08:44:14.915Z,3.64
2019-02-27T08:46:47.845Z,3.74
2019-02-27T08:49:23.983Z,3.85
2019-02-27T08:51:55.072Z,3.99
2019-02-27T08:54:27.069Z,4.11
2019-02-27T08:57:00.385Z,4.19
2019-02-27T08:59:33.187Z,4.31
2019-02-27T09:02:06.166Z,4.40
2019-02-27T09:04:39.147Z,4.45
2019-02-27T09:07:12.044Z,4.40
2019-02-27T09:09:44.938Z,4.37
2019-02-27T09:12:17.847Z,4.37
2019-02-27T09:14:51.240Z,4.45
2019-02-27T09:17:26.913Z,4.56
2019-02-27T09:19:59.108Z,4.69
2019-02-27T09:22:33.858Z,4.85
2019-02-27T09:25:06.755Z,4.91
2019-02-27T09:27:39.191Z,5.04
2019-02-27T09:30:13.918Z,5.10
2019-02-27T09:32:47.828Z,5.14
2019-02-27T09:35:21.121Z,5.11
2019-02-27T09:37:54.394Z,5.19
2019-02-27T09:40:27.179Z,5.26
2019-02-27T09:42:59.743Z,5.29
2019-02-27T09:45:34.996Z,5.34
2019-02-27T09:48:07.416Z,5.39
2019-02-27T09:50:47.759Z,5.43
2019-02-27T09:53:19.614Z,5.41
2019-02-27T09:55:54.295Z,5.45
2019-02-27T09:58:28.209Z,5.46
2019-02-27T10:01:12.050Z,5.52
2019-02-27T10:03:46.591Z,5.49
2019-02-27T10:06:19.415Z,5.56
2019-02-27T10:08:52.869Z,5.64
2019-02-27T10:11:26.759Z,5.64
2019-02-27T10:14:00.074Z,5.69
2019-02-27T10:16:34.872Z,5.76
2019-02-27T10:19:07.444Z,5.86
2019-02-27T10:21:41.268Z,5.93
2019-02-27T10:24:15.319Z,6.04
2019-02-27T10:26:48.474Z,6.10
2019-02-27T10:29:21.305Z,6.18
2019-02-27T10:31:55.455Z,6.26
2019-02-27T10:34:29.192Z,6.36
2019-02-27T10:37:03.114Z,6.44
2019-02-27T10:39:37.036Z,6.54
2019-02-27T10:42:11.345Z,6.65
2019-02-27T10:44:44.629Z,6.72
2019-02-27T10:47:18.348Z,6.85
2019-02-27T10:49:51.929Z,6.95
2019-02-27T10:52:26.067Z,7.06
2019-02-27T10:54:59.759Z,7.17
2019-02-27T10:57:38.218Z,7.26
2019-02-27T11:00:14.328Z,7.39
2019-02-27T11:02:47.956Z,7.50
2019-02-27T11:05:21.568Z,7.62
2019-02-27T11:07:56.143Z,7.71
2019-02-27T11:10:30.083Z,7.77
2019-02-27T11:13:06.789Z,7.85
2019-02-27T11:15:41.370Z,7.94
2019-02-27T11:18:14.072Z,8.03
2019-02-27T11:20:48.563Z,8.10
2019-02-27T11:23:22.725Z,8.21
2019-02-27T11:25:56.917Z,8.30
2019-02-27T11:28:33.174Z,8.41
2019-02-27T11:31:11.044Z,8.52
2019-02-27T11:33:43.219Z,8.65
2019-02-27T11:36:17.952Z,8.76
2019-02-27T11:38:50.435Z,8.88
2019-02-27T11:41:23.622Z,8.98
2019-02-27T11:43:58.994Z,9.09
2019-02-27T11:46:44.221Z,9.26
2019-02-27T11:49:20.603Z,9.78
2019-02-27T11:51:57.029Z,10.46
2019-02-27T11:54:30.944Z,11.06
2019-02-27T11:57:05.671Z,11.68
2019-02-27T11:59:40.791Z,12.24
2019-02-27T12:02:15.733Z,12.70
2019-02-27T12:04:53.758Z,13.09
2019-02-27T12:07:27.871Z,13.63
2019-02-27T12:10:03.491Z,13.99
2019-02-27T12:12:39.042Z,14.44
2019-02-27T12:15:17.325Z,14.68
2019-02-27T12:17:57.222Z,15.03
2019-02-27T12:20:31.176Z,15.47
2019-02-27T12:23:07.526Z,15.66
2019-02-27T12:25:42.928Z,16.09
2019-02-27T12:28:18.258Z,16.22
2019-02-27T12:30:54.470Z,16.81
2019-02-27T12:33:29.465Z,17.12
2019-02-27T12:36:05.121Z,17.18
2019-02-27T12:38:42.292Z,17.47
2019-02-27T12:41:16.703Z,17.41
2019-02-27T12:43:52.727Z,17.77
2019-02-27T12:46:31.895Z,17.79
2019-02-27T12:49:05.360Z,18.14
2019-02-27T12:51:40.937Z,18.36
2019-02-27T12:54:16.672Z,18.25
2019-02-27T12:56:51.143Z,18.68
2019-02-27T12:59:25.076Z,19.06
2019-02-27T13:02:07.941Z,19.28
2019-02-27T13:04:36.219Z,19.12
2019-02-27T13:07:11.820Z,19.23
2019-02-27T13:09:46.644Z,19.45
2019-02-27T13:12:22.029Z,19.54
2019-02-27T13:14:59.431Z,19.91
2019-02-27T13:17:34.463Z,20.50
2019-02-27T13:20:11.714Z,20.94
2019-02-27T13:22:48.701Z,21.01
2019-02-27T13:25:24.785Z,20.70
2019-02-27T13:28:00.623Z,20.95
2019-02-27T13:30:41.403Z,20.86
2019-02-27T13:33:16.619Z,21.29
2019-02-27T13:35:51.111Z,21.01
2019-02-27T13:38:25.556Z,20.78
2019-02-27T13:41:02.530Z,20.41
2019-02-27T13:43:37.865Z,20.55
2019-02-27T13:46:12.103Z,20.63
2019-02-27T13:48:46.363Z,20.31
2019-02-27T13:51:19.723Z,20.04
2019-02-27T13:54:00.188Z,20.27
2019-02-27T13:56:33.005Z,20.31
2019-02-27T13:59:11.054Z,20.09
2019-02-27T14:01:44.328Z,19.66
2019-02-27T14:04:27.115Z,20.27
2019-02-27T14:07:01.564Z,20.58
2019-02-27T14:09:39.076Z,20.61
2019-02-27T14:12:14.740Z,20.84
2019-02-27T14:14:53.383Z,20.84
2019-02-27T14:17:28.884Z,20.45
2019-02-27T14:20:05.284Z,20.36
2019-02-27T14:22:40.716Z,20.35
2019-02-27T14:25:17.259Z,20.71
2019-02-27T14:28:03.961Z,20.63
2019-02-27T14:31:08.973Z,20.78
2019-02-27T14:33:55.173Z,20.92
2019-02-27T14:36:33.814Z,21.14
2019-02-27T14:39:11.278Z,20.98
2019-02-27T14:41:53.157Z,20.49
2019-02-27T14:44:31.304Z,20.53
2019-02-27T14:47:02.520Z,20.75
2019-02-27T14:49:36.591Z,21.05
2019-02-27T14:52:14.014Z,21.14
2019-02-27T14:54:46.663Z,20.93
2019-02-27T14:57:22.168Z,20.63
2019-02-27T14:59:56.508Z,20.71
2019-02-27T15:02:30.932Z,20.69
2019-02-27T15:05:08.895Z,20.63
2019-02-27T15:07:43.024Z,20.63
2019-02-27T15:10:17.989Z,20.32
2019-02-27T15:12:55.179Z,20.09
2019-02-27T15:15:30.812Z,20.10
2019-02-27T15:18:07.340Z,20.13
2019-02-27T15:20:43.028Z,20.28
2019-02-27T15:23:18.300Z,20.41
2019-02-27T15:25:54.270Z,20.46
2019-02-27T15:28:33.041Z,20.56
2019-02-27T15:31:09.168Z,20.35
2019-02-27T15:33:48.433Z,20.09
2019-02-27T15:36:23.621Z,19.90
2019-02-27T15:39:04.252Z,19.97
2019-02-27T15:41:39.277Z,19.81
2019-02-27T15:44:14.137Z,19.51
2019-02-27T15:46:49.160Z,19.23
2019-02-27T15:49:25.214Z,18.92
2019-02-27T15:52:03.312Z,18.64
2019-02-27T15:54:37.203Z,17.97
2019-02-27T15:57:11.529Z,17.38
2019-02-27T15:59:48.257Z,16.89
2019-02-27T16:02:22.684Z,16.41
2019-02-27T16:04:57.569Z,15.89
2019-02-27T16:07:34.062Z,15.52
2019-02-27T16:10:10.874Z,15.15
2019-02-27T16:12:46.889Z,14.89
2019-02-27T16:15:20.049Z,14.57
2019-02-27T16:17:53.963Z,14.34
2019-02-27T16:20:27.300Z,14.21
2019-02-27T16:23:04.393Z,14.16
2019-02-27T16:25:37.003Z,14.10
2019-02-27T16:28:12.085Z,13.99
2019-02-27T16:37:23.981Z,13.47
2019-02-27T16:40:00.529Z,13.37
2019-02-27T16:42:36.441Z,13.23
2019-02-27T16:45:12.106Z,13.11
2019-02-27T16:47:46.332Z,13.00
2019-02-27T16:50:31.441Z,12.86
2019-02-27T16:53:06.318Z,12.73
2019-02-27T16:55:41.844Z,12.57
2019-02-27T16:58:17.717Z,12.45
2019-02-27T17:00:55.411Z,12.29
2019-02-27T17:03:29.495Z,12.02
2019-02-27T17:06:04.189Z,11.88
2019-02-27T17:08:39.118Z,11.68
2019-02-27T17:11:14.134Z,11.56
2019-02-27T17:13:50.347Z,11.43
2019-02-27T17:16:48.923Z,11.34
2019-02-27T17:19:22.656Z,11.22
2019-02-27T17:21:58.448Z,11.11
2019-02-27T17:24:32.227Z,11.00
2019-02-27T17:27:12.594Z,10.92
2019-02-27T17:29:46.206Z,10.81
2019-02-27T17:32:23.715Z,10.77
2019-02-27T17:34:59.386Z,10.72
2019-02-27T17:37:37.369Z,10.58
2019-02-27T17:40:12.540Z,10.44
2019-02-27T17:42:46.386Z,10.36
2019-02-27T17:45:23.426Z,10.26
2019-02-27T17:47:58.573Z,10.20
2019-02-27T17:50:32.767Z,10.14
2019-02-27T17:53:06.853Z,10.03
2019-02-27T17:55:42.480Z,9.96
2019-02-27T17:58:15.933Z,9.92
2019-02-27T18:00:54.412Z,9.85
2019-02-27T18:03:30.506Z,9.71
2019-02-27T18:06:04.874Z,9.63
2019-02-27T18:08:41.154Z,9.54
2019-02-27T18:11:17.744Z,9.47
2019-02-27T18:13:52.490Z,9.46
2019-02-27T18:16:28.165Z,9.43
2019-02-27T18:19:05.191Z,9.42
2019-02-27T18:21:39.788Z,9.41
2019-02-27T18:24:17.798Z,9.41
2019-02-27T18:27:33.672Z,9.42
2019-02-27T18:30:01.710Z,9.41
2019-02-27T18:33:01.182Z,9.40
2019-02-27T18:35:38.063Z,9.39
2019-02-27T18:38:27.804Z,9.40
2019-02-27T18:41:39.686Z,9.42
2019-02-27T18:44:14.945Z,9.41
2019-02-27T18:46:51.720Z,9.46
2019-02-27T18:49:26.775Z,9.45
2019-02-27T18:52:21.213Z,9.47
2019-02-27T18:54:50.731Z,9.49
2019-02-27T18:57:23.610Z,9.47
2019-02-27T19:00:01.415Z,9.45
2019-02-27T19:02:33.682Z,9.44
2019-02-27T19:05:08.157Z,9.45
2019-02-27T19:07:42.243Z,9.43
2019-02-27T19:10:16.563Z,9.42
2019-02-27T19:12:51.131Z,9.40
2019-02-27T19:15:25.410Z,9.35
2019-02-27T19:17:59.390Z,9.33
2019-02-27T19:20:33.742Z,9.32
2019-02-27T19:23:09.915Z,9.27
2019-02-27T19:25:43.510Z,9.25
2019-02-27T19:28:16.558Z,9.20
2019-02-27T19:30:50.214Z,9.18
2019-02-27T19:33:23.306Z,9.15
2019-02-27T19:35:57.521Z,9.09
2019-02-27T19:38:32.144Z,9.00
2019-02-27T19:41:06.514Z,8.96
2019-02-27T19:43:39.499Z,8.91
2019-02-27T19:46:12.362Z,8.90
2019-02-27T19:48:47.930Z,8.88
2019-02-27T19:51:21.246Z,8.85
2019-02-27T19:53:57.112Z,8.78
2019-02-27T19:56:32.324Z,8.76
2019-02-27T19:59:06.899Z,8.71
2019-02-27T20:01:47.030Z,8.67
2019-02-27T20:04:18.434Z,8.64
2019-02-27T20:06:51.508Z,8.58
2019-02-27T20:09:26.362Z,8.53
2019-02-27T20:11:59.448Z,8.50
2019-02-27T20:14:33.236Z,8.48
2019-02-27T20:17:08.690Z,8.45
2019-02-27T20:19:42.509Z,8.40
2019-02-27T20:22:18.980Z,8.36
2019-02-27T20:24:51.707Z,8.32
2019-02-27T20:27:26.808Z,8.32
2019-02-27T20:30:01.070Z,8.31
2019-02-27T20:32:35.044Z,8.31
2019-02-27T20:35:09.173Z,8.24
2019-02-27T20:37:42.564Z,8.18
2019-02-27T20:40:15.669Z,8.08
2019-02-27T20:42:51.369Z,8.02
2019-02-27T20:45:22.927Z,7.98
2019-02-27T20:48:00.771Z,7.94
2019-02-27T20:50:40.697Z,7.97
2019-02-27T20:53:16.406Z,7.98
2019-02-27T20:55:50.334Z,7.97
2019-02-27T20:58:23.936Z,7.98
2019-02-27T21:00:57.633Z,7.94
2019-02-27T21:03:32.252Z,7.92
2019-02-27T21:06:05.419Z,7.90
2019-02-27T21:08:39.985Z,7.87
2019-02-27T21:11:14.448Z,7.83
2019-02-27T21:13:49.722Z,7.79
2019-02-27T21:16:23.279Z,7.75
2019-02-27T21:18:57.785Z,7.70
2019-02-27T21:21:34.708Z,7.67
2019-02-27T21:24:08.658Z,7.63
2019-02-27T21:26:42.987Z,7.60
2019-02-27T21:29:17.839Z,7.61
2019-02-27T21:31:52.320Z,7.58
2019-02-27T21:34:26.920Z,7.56
2019-02-27T21:37:01.188Z,7.55
2019-02-27T21:39:34.940Z,7.51
2019-02-27T21:42:09.255Z,7.44
2019-02-27T21:44:43.650Z,7.34
2019-02-27T21:47:18.977Z,7.28
2019-02-27T21:49:53.928Z,7.22
2019-02-27T21:52:28.402Z,7.24
2019-02-27T21:55:01.365Z,7.21
2019-02-27T21:57:34.733Z,7.22
2019-02-27T22:00:11.349Z,7.19
2019-02-27T22:02:44.968Z,7.15
2019-02-27T22:05:19.697Z,7.10
2019-02-27T22:07:55.417Z,7.05
2019-02-27T22:10:30.591Z,7.00
2019-02-27T22:13:09.558Z,6.94
2019-02-27T22:15:40.590Z,6.90
2019-02-27T22:18:14.403Z,6.88
2019-02-27T22:20:50.219Z,6.84
2019-02-27T22:23:23.874Z,6.85
2019-02-27T22:25:57.998Z,6.83
2019-02-27T22:28:31.441Z,6.80
2019-02-27T22:31:06.761Z,6.77
2019-02-27T22:33:41.690Z,6.78
2019-02-27T22:36:16.020Z,6.75
2019-02-27T22:38:50.769Z,6.73
2019-02-27T22:41:25.113Z,6.75
2019-02-27T22:43:59.204Z,6.76
2019-02-27T22:46:33.444Z,6.72
2019-02-27T22:49:07.863Z,6.69
2019-02-27T22:51:45.188Z,6.68
2019-02-27T22:54:17.160Z,6.62
2019-02-27T22:56:51.925Z,6.56
2019-02-27T22:59:26.823Z,6.50
2019-02-27T23:02:02.210Z,6.48
2019-02-27T23:04:37.826Z,6.43
2019-02-27T23:07:12.246Z,6.41
2019-02-27T23:09:46.297Z,6.37
2019-02-27T23:12:20.264Z,6.34
2019-02-27T23:14:53.996Z,6.31
2019-02-27T23:17:31.667Z,6.30
2019-02-27T23:20:06.399Z,6.30
2019-02-27T23:22:39.752Z,6.32
2019-02-27T23:25:16.218Z,6.33
2019-02-27T23:27:50.599Z,6.35
2019-02-27T23:30:24.937Z,6.36
2019-02-27T23:32:59.402Z,6.34
2019-02-27T23:35:34.619Z,6.30
2019-02-27T23:38:08.113Z,6.29
2019-02-27T23:40:42.123Z,6.27
2019-02-27T23:43:17.015Z,6.26
2019-02-27T23:45:50.009Z,6.23
2019-02-27T23:48:23.918Z,6.16
2019-02-27T23:50:58.689Z,6.19
2019-02-27T23:53:34.966Z,6.15
2019-02-27T23:56:09.263Z,6.15
2019-02-27T23:58:43.470Z,6.16
